Terminal Aerodrome Forecast
Issued by NWS Sterling, VA

Current Version | Previous Version | Text Only | Print | Product List | Glossary On
Versions: 1 2 3 4 5 6 7 8 9 10 11 12 13
000
FTUS41 KLWX 252113 AAA
TAFCHO
TAF AMD
KCHO 252113Z 2521/2618 00000KT P6SM -RA OVC030
     FM260100 00000KT 3SM -RA OVC008
     FM260800 02006KT P6SM -RA SCT008 OVC015
     FM261300 03004KT P6SM BKN035
     FM261500 05004KT P6SM SCT040 BKN080=

USA.gov is the U.S. government's official web portal to all federal, state and local government web resources and services.